Terminal Aerodrome Forecast
Issued by NWS

Home | Current Version | Previous Version | Text Only | Print | Product List | Glossary On
Versions: 1 2 3 4 5 6 7 8 9 10 11 12 13 14 15 16 17 18 19 20 21 22 23 24 25 26 27 28 29
000
FTUS42 KJAX 210854 AAA
TAFVQQ
TAF AMD
KVQQ 210854Z 2109/2206 23002KT P6SM FEW020 BKN200
      TEMPO 2110/2114 BKN015
     FM211400 31006KT P6SM SCT025 BKN200
     FM211900 04006KT P6SM SCT250
     FM220000 10003KT P6SM SKC=

USA.gov is the U.S. government's official web portal to all federal, state and local government web resources and services.